»·PEaware :: N269WW KBFL-KMHV

N269WW :: KBFL-KMHV

FLIGHT INFORMATION

Flight Status: Arrived
Operator: Privately registered:
United States
More flights under this callsign
Pilot: Keenan B. (28722)
Aircraft: CSA SportCruiser
(CRUZ)
More flights by this aircraft type
Origin: KBFL Meadows
United States
Destination: KMHV Mojave
United States
More flights between these airports :: More routes between these airports
Route: KTSP
File this flight plan on PilotEdge
Remarks:
Altitude:
(Current/Filed)
7,500ft
Speed:
(Current/Filed)
90kts
Departed: 15-Apr-20 10:59 AM
Arrived: 15-Apr-20 11:31 AM
Distance/Time
Traveled:
50nm/0:32
Distance/Time
To Go:
Arrived

Flight Plot

Page will automatically refresh every two minutes.

Flight plan parsing failed; only flown route is shown


Map Options




Map Legend


Flown Route
Filed Route
Departure Airport
Arrival Airport
Navaid (VOR, NDB)
Fix

Horizontal Profiles

Position Reports

Time Latitude Longitude Heading Altitude Ground
Speed
15-Apr-20 10:47 35.429658 -119.046615 136 494ft 0kts
15-Apr-20 10:48 35.429658 -119.046615 136 494ft 0kts
15-Apr-20 10:49 35.429658 -119.046615 136 494ft 0kts
15-Apr-20 10:50 35.429658 -119.046615 136 494ft 0kts
15-Apr-20 10:51 35.429658 -119.046615 136 494ft 0kts
15-Apr-20 10:52 35.429574 -119.046522 144 494ft 0kts
15-Apr-20 10:53 35.426730 -119.044563 173 484ft 16kts
15-Apr-20 10:54 35.425790 -119.045065 222 479ft 0kts
15-Apr-20 10:55 35.425790 -119.045065 222 479ft 0kts
15-Apr-20 10:56 35.425790 -119.045065 222 479ft 0kts
15-Apr-20 10:57 35.425480 -119.045474 242 477ft 14kts
15-Apr-20 10:58 35.438173 -119.060242 320 1091ft 87kts
15-Apr-20 10:59 35.457198 -119.074412 24 2288ft 77kts
15-Apr-20 11:00 35.459873 -119.053575 137 3295ft 82kts
15-Apr-20 11:01 35.442260 -119.035254 134 4344ft 84kts
15-Apr-20 11:02 35.425985 -119.014422 116 5345ft 83kts
15-Apr-20 11:03 35.411362 -118.988256 131 6184ft 97kts
15-Apr-20 11:04 35.394985 -118.962159 132 7102ft 96kts
15-Apr-20 11:05 35.378813 -118.933644 126 7717ft 109kts
15-Apr-20 11:06 35.363760 -118.900003 113 7780ft 123kts
15-Apr-20 11:07 35.350216 -118.860495 119 7670ft 123kts
15-Apr-20 11:08 35.332736 -118.826302 116 7624ft 122kts
15-Apr-20 11:09 35.318160 -118.789227 117 7523ft 119kts
15-Apr-20 11:10 35.303546 -118.753034 117 7507ft 121kts
15-Apr-20 11:11 35.288387 -118.717412 117 7628ft 118kts
15-Apr-20 11:12 35.272943 -118.681693 120 7706ft 118kts
15-Apr-20 11:13 35.255799 -118.645682 121 7689ft 124kts
15-Apr-20 11:14 35.237758 -118.608942 122 7638ft 129kts
15-Apr-20 11:15 35.218919 -118.571598 120 7589ft 129kts
15-Apr-20 11:16 35.198625 -118.536065 124 7559ft 126kts
15-Apr-20 11:17 35.178282 -118.500799 123 7444ft 126kts
15-Apr-20 11:18 35.158350 -118.465307 123 7361ft 124kts
15-Apr-20 11:19 35.140651 -118.429444 113 7505ft 123kts
15-Apr-20 11:20 35.127487 -118.390088 109 7538ft 123kts
15-Apr-20 11:21 35.117798 -118.349546 102 7502ft 124kts
15-Apr-20 11:22 35.105800 -118.309537 109 7289ft 123kts
15-Apr-20 11:23 35.094926 -118.274582 108 6841ft 100kts
15-Apr-20 11:24 35.085843 -118.242967 103 6003ft 108kts
15-Apr-20 11:25 35.076165 -118.209167 108 4938ft 103kts
15-Apr-20 11:26 35.065617 -118.177731 111 4008ft 96kts
15-Apr-20 11:27 35.049280 -118.155319 143 3854ft 90kts
15-Apr-20 11:28 35.033016 -118.139929 104 3600ft 62kts
15-Apr-20 11:29 35.045313 -118.131606 314 2787ft 72kts
15-Apr-20 11:30 35.053679 -118.141736 315 2718ft 31kts
15-Apr-20 11:31 35.057584 -118.147834 274 2740ft 0kts
15-Apr-20 11:32 35.057584 -118.147834 273 2740ft 0kts
15-Apr-20 11:33 35.057584 -118.147834 273 2740ft 0kts
15-Apr-20 11:34 35.057584 -118.147834 273 2740ft 0kts
15-Apr-20 11:35 35.057584 -118.147834 273 2740ft 0kts
15-Apr-20 11:36 35.057584 -118.147834 273 2740ft 0kts
15-Apr-20 11:37 35.057543 -118.148726 262 2742ft 13kts
15-Apr-20 11:38 35.057059 -118.150400 262 2745ft 0kts
15-Apr-20 11:39 35.057059 -118.150400 262 2745ft 0kts

Navigation Log

Ident Type
Flight plan parsing failed, navigation log unavailable